createdAt,value
2019-03-30T00:01:46.886Z,11.60
2019-03-30T00:04:16.841Z,13.07
2019-03-30T00:06:46.698Z,12.70
2019-03-30T00:09:16.571Z,13.10
2019-03-30T00:11:46.448Z,11.37
2019-03-30T00:14:16.384Z,11.50
2019-03-30T00:16:46.232Z,10.67
2019-03-30T00:19:16.106Z,10.93
2019-03-30T00:21:45.964Z,10.40
2019-03-30T00:24:15.853Z,10.20
2019-03-30T00:26:45.813Z,10.30
2019-03-30T00:29:15.729Z,9.30
2019-03-30T00:31:45.594Z,8.93
2019-03-30T00:34:15.543Z,9.87
2019-03-30T00:36:45.421Z,9.63
2019-03-30T00:39:16.282Z,10.70
2019-03-30T00:41:46.218Z,10.77
2019-03-30T00:44:16.116Z,10.40
2019-03-30T00:46:46.089Z,11.20
2019-03-30T00:49:16.051Z,11.57
2019-03-30T00:51:46.018Z,12.30
2019-03-30T00:54:16.113Z,12.20
2019-03-30T00:56:45.995Z,12.30
2019-03-30T00:59:15.849Z,10.87
2019-03-30T01:01:45.809Z,12.40
2019-03-30T01:04:15.748Z,10.83
2019-03-30T01:06:45.678Z,10.80
2019-03-30T01:09:15.599Z,11.00
2019-03-30T01:11:45.548Z,11.03
2019-03-30T01:14:15.496Z,11.17
2019-03-30T01:16:45.416Z,11.10
2019-03-30T01:19:15.284Z,11.77
2019-03-30T01:21:45.156Z,11.17
2019-03-30T01:24:15.139Z,11.57
2019-03-30T01:26:45.108Z,13.43
2019-03-30T01:29:14.980Z,12.40
2019-03-30T01:31:44.899Z,12.80
2019-03-30T01:34:14.773Z,12.40
2019-03-30T01:36:44.651Z,13.60
2019-03-30T01:39:14.607Z,12.90
2019-03-30T01:41:44.555Z,12.17
2019-03-30T01:44:14.494Z,11.63
2019-03-30T01:46:44.432Z,11.50
2019-03-30T01:49:14.289Z,11.03
2019-03-30T01:51:44.156Z,11.57
2019-03-30T01:54:14.005Z,11.80
2019-03-30T01:56:43.883Z,12.10
2019-03-30T01:59:13.816Z,12.03
2019-03-30T02:01:43.830Z,10.27
2019-03-30T02:04:13.706Z,10.23
2019-03-30T02:06:43.634Z,9.80
2019-03-30T02:09:13.509Z,10.67
2019-03-30T02:11:43.379Z,10.80
2019-03-30T02:14:13.274Z,10.67
2019-03-30T02:16:43.135Z,11.37
2019-03-30T02:19:13.171Z,12.33
2019-03-30T02:21:43.033Z,11.37
2019-03-30T02:24:13.044Z,12.53
2019-03-30T02:26:42.968Z,13.00
2019-03-30T02:29:12.839Z,13.20
2019-03-30T02:31:42.869Z,12.17
2019-03-30T02:34:12.745Z,12.33
2019-03-30T02:36:42.692Z,12.97
2019-03-30T02:39:12.613Z,12.93
2019-03-30T02:41:42.573Z,12.83
2019-03-30T02:44:12.433Z,12.20
2019-03-30T02:46:42.398Z,13.03
2019-03-30T02:49:12.326Z,12.10
2019-03-30T02:51:42.272Z,12.37
2019-03-30T02:54:12.489Z,12.67
2019-03-30T02:56:42.406Z,11.57
2019-03-30T02:59:12.355Z,11.97
2019-03-30T03:01:42.404Z,12.10
2019-03-30T03:04:12.511Z,12.60
2019-03-30T03:06:42.467Z,12.30
2019-03-30T03:09:12.397Z,12.67
2019-03-30T03:11:42.364Z,12.40
2019-03-30T03:14:12.322Z,12.77
2019-03-30T03:16:42.202Z,12.03
2019-03-30T03:19:13.237Z,12.70
2019-03-30T03:21:43.155Z,14.03
2019-03-30T03:24:13.084Z,14.30
2019-03-30T03:26:42.961Z,13.17
2019-03-30T03:29:12.909Z,13.83
2019-03-30T03:31:42.837Z,12.50
2019-03-30T03:34:12.779Z,11.83
2019-03-30T03:36:42.699Z,12.17
2019-03-30T03:39:12.634Z,11.73
2019-03-30T03:41:42.485Z,12.27
2019-03-30T03:44:12.428Z,12.20
2019-03-30T03:46:42.355Z,11.07
2019-03-30T03:49:12.234Z,12.77
2019-03-30T03:51:42.317Z,11.93
2019-03-30T03:54:12.528Z,12.23
2019-03-30T03:56:42.615Z,11.60
2019-03-30T03:59:13.539Z,11.50
2019-03-30T04:01:45.201Z,12.97
2019-03-30T04:04:18.176Z,12.17
2019-03-30T04:06:49.719Z,12.40
2019-03-30T04:09:22.575Z,13.30
2019-03-30T04:11:54.964Z,12.30
2019-03-30T04:14:26.351Z,12.63
2019-03-30T04:16:56.275Z,13.47
2019-03-30T04:19:26.181Z,13.30
2019-03-30T04:21:57.166Z,13.00
2019-03-30T04:24:27.056Z,12.77
2019-03-30T04:26:56.997Z,14.87
2019-03-30T04:29:26.931Z,13.63
2019-03-30T04:31:56.887Z,14.27
2019-03-30T04:34:26.742Z,14.07
2019-03-30T04:36:56.737Z,14.03
2019-03-30T04:39:26.683Z,14.10
2019-03-30T04:41:56.598Z,14.83
2019-03-30T04:44:26.499Z,13.77
2019-03-30T04:46:56.465Z,13.50
2019-03-30T04:49:26.402Z,13.57
2019-03-30T04:51:58.114Z,13.73
2019-03-30T04:54:28.274Z,13.00
2019-03-30T04:56:59.361Z,13.50
2019-03-30T04:59:31.296Z,12.30
2019-03-30T05:02:01.607Z,13.33
2019-03-30T05:04:31.493Z,11.87
2019-03-30T05:07:01.496Z,12.17
2019-03-30T05:09:31.381Z,12.30
2019-03-30T05:12:01.348Z,12.07
2019-03-30T05:14:31.293Z,12.73
2019-03-30T05:17:01.234Z,11.43
2019-03-30T05:19:31.099Z,11.97
2019-03-30T05:22:11.584Z,12.10
2019-03-30T05:24:32.593Z,11.43
2019-03-30T05:27:02.481Z,10.77
2019-03-30T05:29:32.440Z,11.00
2019-03-30T05:32:02.468Z,11.70
2019-03-30T05:34:32.348Z,11.87
2019-03-30T05:37:02.384Z,11.90
2019-03-30T05:39:32.386Z,10.90
2019-03-30T05:42:02.321Z,12.03
2019-03-30T05:44:32.318Z,11.40
2019-03-30T05:47:02.279Z,10.90
2019-03-30T05:49:32.200Z,11.20
2019-03-30T05:52:02.175Z,10.20
2019-03-30T05:54:32.135Z,10.17
2019-03-30T05:57:02.224Z,10.80
2019-03-30T05:59:32.116Z,9.80
2019-03-30T06:02:02.250Z,11.03
2019-03-30T06:04:32.305Z,10.63
2019-03-30T06:07:02.187Z,10.90
2019-03-30T06:09:32.332Z,11.50
2019-03-30T06:12:02.196Z,10.60
2019-03-30T06:14:32.088Z,11.70
2019-03-30T06:17:02.136Z,11.47
2019-03-30T06:19:32.146Z,10.63
2019-03-30T06:22:02.392Z,11.47
2019-03-30T06:24:32.434Z,11.93
2019-03-30T06:27:02.395Z,12.23
2019-03-30T06:29:32.412Z,11.70
2019-03-30T06:32:02.277Z,12.03
2019-03-30T06:34:32.144Z,12.60
2019-03-30T06:37:02.046Z,13.50
2019-03-30T06:39:31.975Z,13.57
2019-03-30T06:42:01.843Z,14.00
2019-03-30T06:44:31.751Z,12.57
2019-03-30T06:47:01.711Z,13.67
2019-03-30T06:49:31.744Z,13.57
2019-03-30T06:52:01.837Z,13.20
2019-03-30T06:54:33.236Z,13.93
2019-03-30T06:57:03.181Z,13.97
2019-03-30T06:59:35.769Z,14.57
2019-03-30T07:02:08.056Z,14.20
2019-03-30T07:04:38.224Z,14.80
2019-03-30T07:07:09.899Z,13.57
2019-03-30T07:09:42.053Z,13.83
2019-03-30T07:12:13.201Z,13.80
2019-03-30T07:14:45.755Z,14.63
2019-03-30T07:17:17.862Z,13.83
2019-03-30T07:19:50.035Z,14.57
2019-03-30T07:22:20.109Z,13.97
2019-03-30T07:24:50.049Z,13.33
2019-03-30T07:27:20.005Z,14.40
2019-03-30T07:29:49.869Z,14.07
2019-03-30T07:32:19.764Z,14.50
2019-03-30T07:34:49.741Z,14.50
2019-03-30T07:37:19.667Z,13.73
2019-03-30T07:39:49.554Z,14.93
2019-03-30T07:42:19.422Z,15.37
2019-03-30T07:44:49.463Z,14.50
2019-03-30T07:47:19.401Z,15.07
2019-03-30T07:49:49.276Z,13.47
2019-03-30T07:52:19.183Z,14.67
2019-03-30T07:54:49.048Z,15.43
2019-03-30T07:57:20.046Z,15.63
2019-03-30T07:59:49.993Z,15.13
2019-03-30T08:02:20.001Z,15.97
2019-03-30T08:04:49.847Z,14.90
2019-03-30T08:07:19.735Z,15.17
2019-03-30T08:09:50.762Z,15.10
2019-03-30T08:12:20.695Z,15.80
2019-03-30T08:14:50.575Z,15.20
2019-03-30T08:17:20.448Z,14.47
2019-03-30T08:19:50.573Z,14.83
2019-03-30T08:22:20.559Z,14.57
2019-03-30T08:24:50.428Z,14.60
2019-03-30T08:27:20.380Z,12.17
2019-03-30T08:29:50.311Z,14.53
2019-03-30T08:32:20.187Z,13.90
2019-03-30T08:34:50.120Z,15.03
2019-03-30T08:37:20.469Z,14.10
2019-03-30T08:39:50.319Z,14.23
2019-03-30T08:42:20.873Z,15.07
2019-03-30T08:44:50.820Z,15.47
2019-03-30T08:47:20.719Z,16.27
2019-03-30T08:49:50.591Z,14.73
2019-03-30T08:52:20.460Z,16.07
2019-03-30T08:54:50.427Z,15.23
2019-03-30T08:57:20.409Z,16.13
2019-03-30T08:59:50.361Z,14.80
2019-03-30T09:02:20.310Z,13.77
2019-03-30T09:04:50.257Z,15.77
2019-03-30T09:07:20.270Z,14.77
2019-03-30T09:09:50.149Z,14.43
2019-03-30T09:12:21.185Z,14.43
2019-03-30T09:14:51.059Z,15.23
2019-03-30T09:17:20.987Z,15.10
2019-03-30T09:19:50.940Z,14.37
2019-03-30T09:22:20.878Z,14.50
2019-03-30T09:24:50.769Z,15.37
2019-03-30T09:27:20.693Z,15.73
2019-03-30T09:29:50.568Z,14.67
2019-03-30T09:32:20.536Z,16.13
2019-03-30T09:34:50.475Z,16.13
2019-03-30T09:37:20.510Z,17.60
2019-03-30T09:39:50.588Z,16.57
2019-03-30T09:42:20.619Z,16.50
2019-03-30T09:44:50.524Z,15.43
2019-03-30T09:47:20.482Z,15.57
2019-03-30T09:49:52.177Z,16.40
2019-03-30T09:52:22.096Z,16.07
2019-03-30T09:54:52.030Z,16.20
2019-03-30T09:57:22.145Z,16.73
2019-03-30T09:59:52.183Z,17.00
2019-03-30T10:02:22.232Z,17.90
2019-03-30T10:04:52.188Z,16.83
2019-03-30T10:07:22.375Z,16.27
2019-03-30T10:09:52.395Z,17.37
2019-03-30T10:12:23.443Z,16.97
2019-03-30T10:14:53.704Z,17.90
2019-03-30T10:17:23.715Z,16.97
2019-03-30T10:20:04.274Z,16.62
2019-03-30T10:22:25.342Z,17.65
2019-03-30T10:24:58.295Z,17.25
2019-03-30T10:27:27.432Z,17.87
2019-03-30T10:29:57.347Z,19.83
2019-03-30T10:32:27.243Z,17.20
2019-03-30T10:34:57.178Z,16.37
2019-03-30T10:37:27.140Z,16.50
2019-03-30T10:39:57.017Z,17.37
2019-03-30T10:42:27.036Z,17.23
2019-03-30T10:44:56.929Z,14.43
2019-03-30T10:47:26.850Z,14.80
2019-03-30T10:49:56.723Z,14.07
2019-03-30T10:52:26.660Z,14.97
2019-03-30T10:54:56.609Z,15.37
2019-03-30T10:57:26.473Z,14.70
2019-03-30T10:59:56.361Z,14.90
2019-03-30T11:02:26.245Z,16.30
2019-03-30T11:04:56.330Z,17.47
2019-03-30T11:07:26.288Z,15.63
2019-03-30T11:09:56.180Z,16.20
2019-03-30T11:12:26.121Z,15.30
2019-03-30T11:14:56.078Z,14.93
2019-03-30T11:17:26.588Z,15.40
2019-03-30T11:19:56.549Z,14.83
2019-03-30T11:22:26.479Z,15.15
2019-03-30T11:25:07.491Z,16.62
2019-03-30T11:27:28.359Z,16.45
2019-03-30T11:29:58.310Z,16.15
2019-03-30T11:32:28.206Z,15.43
2019-03-30T11:34:58.202Z,17.00
2019-03-30T11:37:28.209Z,16.57
2019-03-30T11:39:58.135Z,17.05
2019-03-30T11:42:28.033Z,16.35
2019-03-30T11:44:57.959Z,16.90
2019-03-30T11:47:27.845Z,14.87
2019-03-30T11:49:57.719Z,14.25
2019-03-30T11:52:27.595Z,14.13
2019-03-30T11:54:57.547Z,14.93
2019-03-30T11:57:27.487Z,14.78
2019-03-30T11:59:57.491Z,15.50
2019-03-30T12:02:28.480Z,15.90
2019-03-30T12:04:58.601Z,15.37
2019-03-30T12:07:28.580Z,15.70
2019-03-30T12:09:58.573Z,12.67
2019-03-30T12:12:28.623Z,13.45
2019-03-30T12:14:58.558Z,12.75
2019-03-30T12:17:29.563Z,13.88
2019-03-30T12:19:59.432Z,14.23
2019-03-30T12:22:29.314Z,14.90
2019-03-30T12:24:59.294Z,15.33
2019-03-30T12:27:29.264Z,14.57
2019-03-30T12:29:59.266Z,14.03
2019-03-30T12:32:29.160Z,14.50
2019-03-30T12:34:59.105Z,13.60
2019-03-30T12:37:30.212Z,14.07
2019-03-30T12:40:00.386Z,12.23
2019-03-30T12:42:30.386Z,12.37
2019-03-30T12:45:00.352Z,14.43
2019-03-30T12:47:30.306Z,14.70
2019-03-30T12:50:00.403Z,14.20
2019-03-30T12:52:30.612Z,12.70
2019-03-30T12:55:00.585Z,13.70
2019-03-30T12:57:30.512Z,13.27
2019-03-30T13:00:00.391Z,12.80
2019-03-30T13:02:30.683Z,11.23
2019-03-30T13:05:00.673Z,11.53
2019-03-30T13:07:30.532Z,12.83
2019-03-30T13:10:00.585Z,13.37
2019-03-30T13:12:30.674Z,12.53
2019-03-30T13:15:00.560Z,12.83
2019-03-30T13:17:30.452Z,12.80
2019-03-30T13:20:00.529Z,12.10
2019-03-30T13:22:30.547Z,12.00
2019-03-30T13:25:00.481Z,11.67
2019-03-30T13:27:30.422Z,11.87
2019-03-30T13:30:00.463Z,12.37
2019-03-30T13:32:30.412Z,12.53
2019-03-30T13:35:00.456Z,11.27
2019-03-30T13:37:30.419Z,12.87
2019-03-30T13:40:00.524Z,11.60
2019-03-30T13:42:30.406Z,13.13
2019-03-30T13:45:03.353Z,11.47
2019-03-30T13:47:33.040Z,11.30
2019-03-30T13:50:02.972Z,11.23
2019-03-30T13:52:33.923Z,11.30
2019-03-30T13:55:04.847Z,11.23
2019-03-30T13:57:34.796Z,11.13
2019-03-30T14:00:07.170Z,10.87
2019-03-30T14:02:37.093Z,10.53
2019-03-30T14:05:07.499Z,11.00
2019-03-30T14:07:37.511Z,10.37
2019-03-30T14:10:08.494Z,10.30
2019-03-30T14:12:38.355Z,9.80
2019-03-30T14:15:09.522Z,9.03
2019-03-30T14:17:39.712Z,8.90
2019-03-30T14:20:09.923Z,9.43
2019-03-30T14:22:39.942Z,10.17
2019-03-30T14:25:09.940Z,9.80
2019-03-30T14:27:39.820Z,9.20
2019-03-30T14:30:12.352Z,9.10
2019-03-30T14:32:42.222Z,9.43
2019-03-30T14:35:12.090Z,10.03
2019-03-30T14:37:42.019Z,9.40
2019-03-30T14:40:12.515Z,9.87
2019-03-30T14:42:42.427Z,8.97
2019-03-30T14:45:12.518Z,10.40
2019-03-30T14:47:42.407Z,11.40
2019-03-30T14:50:12.522Z,10.67
2019-03-30T14:52:42.484Z,11.20
2019-03-30T14:55:12.549Z,10.10
2019-03-30T14:57:42.504Z,10.40
2019-03-30T15:00:12.978Z,10.00
2019-03-30T15:02:43.037Z,10.20
2019-03-30T15:05:12.989Z,10.10
2019-03-30T15:07:42.938Z,10.53
2019-03-30T15:10:12.882Z,10.20
2019-03-30T15:12:42.819Z,9.37
2019-03-30T15:15:13.705Z,10.17
2019-03-30T15:17:43.636Z,9.60
2019-03-30T15:20:14.963Z,10.73
2019-03-30T15:22:44.913Z,10.50
2019-03-30T15:25:14.997Z,10.37
2019-03-30T15:27:45.990Z,12.20
2019-03-30T15:30:16.289Z,10.83
2019-03-30T15:32:46.210Z,10.03
2019-03-30T15:35:16.168Z,10.03
2019-03-30T15:37:46.090Z,10.43
2019-03-30T15:40:16.041Z,10.10
2019-03-30T15:42:45.933Z,10.53
2019-03-30T15:45:15.871Z,10.03
2019-03-30T15:47:45.820Z,10.33
2019-03-30T15:50:15.890Z,10.40
2019-03-30T15:52:45.836Z,10.40
2019-03-30T15:55:15.776Z,11.43
2019-03-30T15:57:45.742Z,9.80
2019-03-30T16:00:16.631Z,10.53
2019-03-30T16:02:46.625Z,11.40
2019-03-30T16:05:16.963Z,10.17
2019-03-30T16:07:46.983Z,10.37
2019-03-30T16:10:17.079Z,10.23
2019-03-30T16:12:47.045Z,10.40
2019-03-30T16:15:17.067Z,11.33
2019-03-30T16:17:46.997Z,11.13
2019-03-30T16:20:16.937Z,11.23
2019-03-30T16:22:46.864Z,10.37
2019-03-30T16:25:16.737Z,10.80
2019-03-30T16:27:47.875Z,10.80
2019-03-30T16:30:17.996Z,11.10
2019-03-30T16:32:47.867Z,10.63
2019-03-30T16:35:17.817Z,10.40
2019-03-30T16:37:47.755Z,11.37
2019-03-30T16:40:17.764Z,11.67
2019-03-30T16:42:47.628Z,10.83
2019-03-30T16:45:17.630Z,11.00
2019-03-30T16:47:47.549Z,11.33
2019-03-30T16:50:17.559Z,11.07
2019-03-30T16:52:47.415Z,11.43
2019-03-30T16:55:17.382Z,12.03
2019-03-30T16:57:47.373Z,11.57
2019-03-30T17:00:18.209Z,12.27
2019-03-30T17:02:48.204Z,11.97
2019-03-30T17:05:18.164Z,11.50
2019-03-30T17:07:48.095Z,12.33
2019-03-30T17:10:18.006Z,13.10
2019-03-30T17:12:47.938Z,12.70
2019-03-30T17:15:17.877Z,13.27
2019-03-30T17:17:47.736Z,12.63
2019-03-30T17:20:17.742Z,13.10
2019-03-30T17:22:47.603Z,12.83
2019-03-30T17:25:17.557Z,13.50
2019-03-30T17:27:58.179Z,14.53
2019-03-30T17:30:19.079Z,13.67
2019-03-30T17:32:49.082Z,15.00
2019-03-30T17:35:19.092Z,14.17
2019-03-30T17:37:49.032Z,12.67
2019-03-30T17:40:18.895Z,13.43
2019-03-30T17:42:48.856Z,12.87
2019-03-30T17:45:19.474Z,13.37
2019-03-30T17:47:49.491Z,13.30
2019-03-30T17:50:19.480Z,14.43
2019-03-30T17:52:49.362Z,15.17
2019-03-30T17:55:32.736Z,15.10
2019-03-30T17:57:50.893Z,15.10
2019-03-30T18:00:21.275Z,15.40
2019-03-30T18:02:51.181Z,14.50
2019-03-30T18:05:21.141Z,13.80
2019-03-30T18:08:03.344Z,14.60
2019-03-30T18:10:40.499Z,15.10
2019-03-30T18:13:11.272Z,17.12
2019-03-30T18:15:41.309Z,16.27
2019-03-30T18:18:11.244Z,15.60
2019-03-30T18:20:41.699Z,15.10
2019-03-30T18:23:11.553Z,19.17
2019-03-30T18:25:41.579Z,19.03
2019-03-30T18:28:11.595Z,18.27
2019-03-30T18:30:41.743Z,17.80
2019-03-30T18:33:11.663Z,18.13
2019-03-30T18:35:41.754Z,20.60
2019-03-30T18:38:13.075Z,19.10
2019-03-30T18:40:44.377Z,20.17
2019-03-30T18:43:14.240Z,18.73
2019-03-30T18:45:44.350Z,18.47
2019-03-30T18:48:15.746Z,25.83
2019-03-30T18:50:46.443Z,24.10
2019-03-30T18:53:17.134Z,30.93
2019-03-30T18:55:47.092Z,32.57
2019-03-30T18:58:17.142Z,28.93
2019-03-30T19:00:47.057Z,25.23
2019-03-30T19:03:20.294Z,22.90
2019-03-30T19:05:53.480Z,90.03
2019-03-30T19:08:25.596Z,50.23
2019-03-30T19:10:55.844Z,28.63
2019-03-30T19:13:25.973Z,22.10
2019-03-30T19:15:56.802Z,22.73
2019-03-30T19:18:29.270Z,20.60
2019-03-30T19:21:00.759Z,20.53
2019-03-30T19:23:32.944Z,19.73
2019-03-30T19:26:04.280Z,20.07
2019-03-30T19:28:34.532Z,18.67
2019-03-30T19:31:04.624Z,17.90
2019-03-30T19:33:34.471Z,17.23
2019-03-30T19:36:04.367Z,17.53
2019-03-30T19:38:34.381Z,19.23
2019-03-30T19:41:04.338Z,21.10
2019-03-30T19:43:34.300Z,21.10
2019-03-30T19:46:04.349Z,22.00
2019-03-30T19:48:36.930Z,22.20
2019-03-30T19:51:06.091Z,22.70
2019-03-30T19:53:36.131Z,20.50
2019-03-30T19:56:06.071Z,19.80
2019-03-30T19:58:36.005Z,17.93
2019-03-30T20:01:06.099Z,18.03
2019-03-30T20:03:35.955Z,18.27
2019-03-30T20:06:06.038Z,17.73
2019-03-30T20:08:37.095Z,17.83
2019-03-30T20:11:07.040Z,17.50
2019-03-30T20:13:37.510Z,18.07
2019-03-30T20:16:07.623Z,19.23
2019-03-30T20:18:37.594Z,18.70
2019-03-30T20:21:08.486Z,19.97
2019-03-30T20:23:38.449Z,20.13
2019-03-30T20:26:08.309Z,19.53
2019-03-30T20:28:40.110Z,20.77
2019-03-30T20:31:10.253Z,19.97
2019-03-30T20:33:40.272Z,20.23
2019-03-30T20:36:10.204Z,21.50
2019-03-30T20:38:40.157Z,20.17
2019-03-30T20:41:10.980Z,21.07
2019-03-30T20:43:40.910Z,21.10
2019-03-30T20:46:10.838Z,20.47
2019-03-30T20:48:40.791Z,21.10
2019-03-30T20:51:12.484Z,21.40
2019-03-30T20:53:42.360Z,22.67
2019-03-30T20:56:12.269Z,21.03
2019-03-30T20:58:42.254Z,22.07
2019-03-30T21:01:12.137Z,21.53
2019-03-30T21:03:42.138Z,20.67
2019-03-30T21:06:12.101Z,20.70
2019-03-30T21:08:42.062Z,20.43
2019-03-30T21:11:11.927Z,20.30
2019-03-30T21:13:42.862Z,20.27
2019-03-30T21:16:12.866Z,19.57
2019-03-30T21:18:42.743Z,20.03
2019-03-30T21:21:12.705Z,19.63
2019-03-30T21:23:45.506Z,19.73
2019-03-30T21:26:15.393Z,18.67
2019-03-30T21:28:48.295Z,18.50
2019-03-30T21:31:18.261Z,18.37
2019-03-30T21:33:48.284Z,18.40
2019-03-30T21:36:18.160Z,19.03
2019-03-30T21:38:48.022Z,17.43
2019-03-30T21:41:18.624Z,18.20
2019-03-30T21:43:48.878Z,17.83
2019-03-30T21:46:18.839Z,18.33
2019-03-30T21:48:48.726Z,18.00
2019-03-30T21:51:18.591Z,18.03
2019-03-30T21:53:48.603Z,17.87
2019-03-30T21:56:18.473Z,17.97
2019-03-30T21:58:48.433Z,17.80
2019-03-30T22:01:19.446Z,17.50
2019-03-30T22:03:50.535Z,18.50
2019-03-30T22:06:20.690Z,16.77
2019-03-30T22:08:50.972Z,17.97
2019-03-30T22:11:20.913Z,17.03
2019-03-30T22:13:51.144Z,17.63
2019-03-30T22:16:21.091Z,17.27
2019-03-30T22:18:51.048Z,18.63
2019-03-30T22:21:20.932Z,17.13
2019-03-30T22:23:50.885Z,16.77
2019-03-30T22:26:20.833Z,16.73
2019-03-30T22:28:50.765Z,15.73
2019-03-30T22:31:20.638Z,16.03
2019-03-30T22:33:50.589Z,15.67
2019-03-30T22:36:20.534Z,15.63
2019-03-30T22:38:50.470Z,15.83
2019-03-30T22:41:20.417Z,15.57
2019-03-30T22:43:50.428Z,15.40
2019-03-30T22:46:20.309Z,15.50
2019-03-30T22:48:50.223Z,15.10
2019-03-30T22:51:20.086Z,16.63
2019-03-30T22:53:49.961Z,15.33
2019-03-30T22:56:19.825Z,15.73
2019-03-30T22:58:49.769Z,15.93
2019-03-30T23:01:21.167Z,16.47
2019-03-30T23:03:52.736Z,15.57
2019-03-30T23:06:22.790Z,16.07
2019-03-30T23:08:52.651Z,15.13
2019-03-30T23:11:22.631Z,14.70
2019-03-30T23:13:53.506Z,15.00
2019-03-30T23:16:23.429Z,14.40
2019-03-30T23:18:53.372Z,13.97
2019-03-30T23:21:23.242Z,14.43
2019-03-30T23:23:53.180Z,15.30
2019-03-30T23:26:24.056Z,14.27
2019-03-30T23:28:54.004Z,15.07
2019-03-30T23:31:23.927Z,14.93
2019-03-30T23:33:53.809Z,14.23
2019-03-30T23:36:23.691Z,13.47
2019-03-30T23:38:54.606Z,14.23
2019-03-30T23:41:24.622Z,13.13
2019-03-30T23:43:54.463Z,12.93
2019-03-30T23:46:24.341Z,12.90
2019-03-30T23:48:54.220Z,12.43
2019-03-30T23:51:24.183Z,13.63
2019-03-30T23:53:54.107Z,13.33
2019-03-30T23:56:25.987Z,13.20
2019-03-30T23:58:56.104Z,13.57
